Terminal Aerodrome Forecast
Issued by NWS

Home | Current Version | Previous Version | Text Only | Print | Product List | Glossary On
Versions: 1 2 3 4 5 6 7 8 9 10 11 12 13 14 15 16 17 18 19 20 21
000
FTUS43 KBIS 311300 AAB
TAFMOT
TAF AMD
KMOT 311349Z 3114/0112 04012KT P6SM OVC023
     FM311600 04013KT 3SM -SN OVC025
     FM312200 03011KT P6SM OVC025=

USA.gov is the U.S. government's official web portal to all federal, state and local government web resources and services.